CET,Max TemperatureF,Mean TemperatureF,Min TemperatureF,Max Dew PointF,MeanDew PointF,Min DewpointF,Max Humidity, Mean Humidity, Min Humidity, Max Sea Level PressureIn, Mean Sea Level PressureIn, Min Sea Level PressureIn, Max VisibilityMiles, Mean VisibilityMiles, Min VisibilityMiles, Max Wind SpeedMPH, Mean Wind SpeedMPH, Max Gust SpeedMPH,PrecipitationIn, CloudCover, Events, WindDirDegrees
2012-11-1,59,55,51,54,50,48,94,82,72,29.74,29.58,29.42,6,6,3,15,10,,0.00,4,Rain,251
2012-11-2,66,58,51,55,53,48,88,79,68,29.77,29.74,29.71,6,6,1,18,9,32,0.00,4,Rain,225
2012-11-3,60,56,51,55,52,48,100,87,68,29.71,29.69,29.65,6,5,2,8,3,,0.00,5,Rain,318
2012-11-4,59,54,50,48,45,37,88,73,48,29.89,29.80,29.71,6,6,2,13,6,20,0.00,4,Rain,257
2012-11-5,57,52,46,50,47,45,100,84,72,30.18,30.04,29.92,6,6,2,13,8,21,0.00,3,Fog-Rain,237
2012-11-6,59,49,39,52,43,39,100,82,51,30.39,30.31,30.18,6,4,0,13,4,,0.00,2,Fog,50
2012-11-7,60,48,35,46,41,36,100,80,45,30.39,30.22,30.09,6,6,0,8,3,,0.00,5,Fog-Rain,123
2012-11-8,57,52,48,55,52,48,100,96,82,30.09,30.00,29.95,6,6,3,6,1,,0.00,5,Fog-Rain,167
2012-11-9,66,58,51,55,54,52,100,89,68,29.95,29.91,29.86,6,6,6,7,3,16,0.00,3,Fog,169
2012-11-10,55,50,46,52,48,43,94,85,67,29.92,29.86,29.77,6,6,2,17,8,33,0.00,4,Rain-Hail,287
2012-11-11,57,50,44,48,45,43,100,87,67,30.30,30.11,29.92,6,6,2,15,5,29,0.00,4,Fog-Rain-Hail,30
2012-11-12,59,49,39,48,45,39,100,89,63,30.39,30.33,30.30,6,4,0,8,3,20,0.00,3,Fog,133
2012-11-13,60,48,35,48,43,36,100,90,59,30.30,30.17,30.06,6,4,0,8,4,16,0.00,2,Fog,180
2012-11-14,64,52,41,52,44,37,100,74,40,30.06,30.02,29.98,6,4,1,8,4,,0.00,3,Fog,171
2012-11-15,75,62,50,59,54,48,100,75,50,30.01,29.94,29.89,6,6,6,17,5,,0.00,2,,165
2012-11-16,66,58,50,57,54,48,100,85,64,29.95,29.85,29.77,6,5,1,7,2,,0.00,3,Fog-Rain,111
2012-11-17,57,55,53,57,54,50,100,95,82,29.98,29.80,29.71,6,3,0,22,6,34,0.00,6,Fog-Rain,9
2012-11-18,57,50,42,50,44,39,100,79,51,30.06,30.02,29.98,6,6,6,13,5,17,0.00,2,Fog,359
2012-11-19,60,50,41,52,48,41,100,78,68,30.01,29.93,29.89,6,6,6,17,9,30,0.00,3,,177
2012-11-20,62,56,51,54,52,50,100,80,68,29.92,29.83,29.71,6,6,1,23,14,34,0.00,4,Rain,194
2012-11-21,59,52,42,48,44,41,100,75,51,30.21,30.15,29.89,6,6,6,12,6,,0.00,3,,227
2012-11-22,55,48,42,43,41,37,93,71,62,30.21,30.10,30.01,6,6,6,15,10,25,0.00,2,,167
2012-11-23,59,56,53,48,44,41,82,65,51,30.01,29.90,29.77,6,6,6,23,12,39,0.00,1,Rain,158
2012-11-24,64,58,50,55,50,45,94,79,64,30.12,29.87,29.56,6,6,3,29,14,52,0.00,5,Rain,240
2012-11-25,57,50,42,50,45,43,100,86,67,30.12,30.05,29.98,6,6,6,14,4,,0.00,2,Rain,211
2012-11-26,53,48,44,50,44,41,100,81,67,30.06,30.03,29.98,6,6,4,17,8,32,0.00,4,Rain,305
2012-11-27,50,46,41,46,42,39,100,87,66,30.04,29.96,29.89,6,6,6,18,5,34,0.00,6,Rain-Hail,281
2012-11-28,51,45,39,48,44,39,100,87,71,30.12,30.04,29.98,6,6,2,20,5,33,0.00,5,Fog-Rain,19
2012-11-29,51,46,41,50,44,41,100,92,67,30.18,30.07,29.86,6,4,0,14,3,37,0.00,4,Fog-Rain,212
2012-11-30,51,48,46,48,45,43,100,88,76,30.01,29.86,29.74,6,6,2,18,9,36,0.00,5,Rain,17